createdAt,value
2022-08-23T00:00:00.206Z,99.90
2022-08-23T00:04:10.323Z,99.90
2022-08-23T00:08:14.887Z,99.90
2022-08-23T00:12:20.953Z,99.90
2022-08-23T00:16:24.370Z,99.90
2022-08-23T00:20:29.011Z,99.90
2022-08-23T00:24:32.487Z,99.90
2022-08-23T00:28:41.354Z,99.90
2022-08-23T00:32:45.696Z,99.90
2022-08-23T00:36:50.617Z,99.90
2022-08-23T00:40:55.000Z,99.90
2022-08-23T00:45:19.774Z,99.90
2022-08-23T00:49:23.718Z,99.90
2022-08-23T00:53:32.685Z,99.90
2022-08-23T00:57:37.432Z,99.90
2022-08-23T01:01:41.746Z,99.90
2022-08-23T01:05:52.340Z,99.90
2022-08-23T01:10:03.367Z,99.90
2022-08-23T01:14:16.673Z,99.90
2022-08-23T01:18:23.390Z,99.90
2022-08-23T01:22:34.389Z,99.90
2022-08-23T01:26:39.267Z,99.90
2022-08-23T01:30:46.430Z,99.90
2022-08-23T01:34:51.663Z,99.90
2022-08-23T01:38:55.142Z,99.90
2022-08-23T01:43:00.013Z,99.90
2022-08-23T01:47:03.600Z,99.90
2022-08-23T01:51:06.890Z,99.90
2022-08-23T01:55:10.311Z,99.90
2022-08-23T01:59:15.903Z,99.90
2022-08-23T02:03:19.687Z,99.90
2022-08-23T02:07:27.599Z,99.90
2022-08-23T02:11:34.554Z,99.90
2022-08-23T02:15:40.014Z,99.90
2022-08-23T02:19:44.640Z,99.90
2022-08-23T02:23:48.976Z,99.90
2022-08-23T02:27:52.193Z,99.90
2022-08-23T02:31:57.040Z,99.90
2022-08-23T02:36:00.338Z,99.90
2022-08-23T02:40:04.197Z,99.90
2022-08-23T02:44:07.524Z,99.90
2022-08-23T02:48:12.290Z,99.90
2022-08-23T02:52:15.574Z,99.90
2022-08-23T02:56:21.811Z,99.90
2022-08-23T03:00:25.386Z,99.90
2022-08-23T03:04:30.260Z,99.90
2022-08-23T03:08:33.536Z,99.90
2022-08-23T03:12:37.016Z,99.90
2022-08-23T03:16:40.698Z,99.90
2022-08-23T03:20:45.548Z,99.90
2022-08-23T03:24:48.805Z,99.90
2022-08-23T03:28:52.278Z,99.90
2022-08-23T03:32:57.062Z,99.90
2022-08-23T03:37:01.929Z,99.90
2022-08-23T03:41:05.539Z,99.90
2022-08-23T03:45:11.081Z,99.90
2022-08-23T03:49:14.397Z,99.90
2022-08-23T03:53:19.068Z,99.90
2022-08-23T03:57:22.284Z,99.90
2022-08-23T04:01:28.652Z,99.90
2022-08-23T04:05:32.246Z,99.90
2022-08-23T04:09:36.960Z,99.90
2022-08-23T04:13:41.003Z,99.90
2022-08-23T04:17:44.309Z,99.90
2022-08-23T04:21:52.342Z,99.90
2022-08-23T04:25:56.992Z,99.90
2022-08-23T04:30:02.156Z,99.90
2022-08-23T04:34:05.461Z,99.90
2022-08-23T04:38:18.262Z,99.90
2022-08-23T04:42:30.142Z,99.90
2022-08-23T04:46:33.491Z,99.90
2022-08-23T04:50:37.341Z,99.90
2022-08-23T04:54:40.569Z,99.90
2022-08-23T04:58:45.540Z,99.90
2022-08-23T05:02:49.047Z,99.90
2022-08-23T05:06:52.483Z,99.90
2022-08-23T05:10:57.169Z,99.90
2022-08-23T05:15:03.370Z,99.90
2022-08-23T05:19:07.039Z,99.90
2022-08-23T05:23:10.682Z,99.90
2022-08-23T05:27:13.955Z,99.90
2022-08-23T05:31:21.140Z,99.90
2022-08-23T05:35:24.506Z,99.90
2022-08-23T05:39:32.734Z,99.90
2022-08-23T05:43:41.062Z,99.90
2022-08-23T05:47:46.437Z,99.90
2022-08-23T05:51:54.365Z,99.90
2022-08-23T05:55:57.704Z,99.90
2022-08-23T06:00:00.902Z,99.90
2022-08-23T06:04:08.244Z,99.90
2022-08-23T06:08:11.486Z,99.90
2022-08-23T06:12:15.095Z,99.90
2022-08-23T06:16:20.414Z,99.90
2022-08-23T06:20:25.152Z,99.90
2022-08-23T06:24:28.546Z,99.90
2022-08-23T06:28:32.352Z,99.90
2022-08-23T06:32:36.249Z,99.90
2022-08-23T06:36:41.227Z,99.90
2022-08-23T06:40:45.014Z,99.90
2022-08-23T06:44:48.265Z,99.90
2022-08-23T06:48:53.267Z,99.90
2022-08-23T06:52:57.927Z,99.90
2022-08-23T06:57:01.974Z,99.90
2022-08-23T07:01:28.842Z,99.90
2022-08-23T07:05:36.998Z,99.90
2022-08-23T07:09:42.543Z,99.90
2022-08-23T07:13:46.168Z,99.90
2022-08-23T07:17:49.361Z,99.90
2022-08-23T07:21:52.602Z,99.90
2022-08-23T07:25:57.666Z,99.90
2022-08-23T07:30:00.932Z,99.90
2022-08-23T07:34:06.387Z,99.90
2022-08-23T07:38:09.640Z,99.90
2022-08-23T07:42:23.735Z,99.90
2022-08-23T07:46:28.251Z,99.90
2022-08-23T07:50:31.767Z,99.90
2022-08-23T07:54:35.023Z,99.90
2022-08-23T07:58:40.150Z,99.90
2022-08-23T08:02:43.444Z,99.90
2022-08-23T08:07:04.890Z,99.90
2022-08-23T08:11:16.494Z,99.90
2022-08-23T08:15:23.223Z,99.90
2022-08-23T08:19:26.569Z,99.90
2022-08-23T08:23:30.262Z,99.90
2022-08-23T08:27:35.156Z,99.90
2022-08-23T08:31:41.782Z,99.90
2022-08-23T08:35:48.136Z,99.90
2022-08-23T08:40:02.311Z,99.90
2022-08-23T08:44:15.789Z,99.90
2022-08-23T08:48:25.249Z,99.90
2022-08-23T08:52:32.552Z,99.90
2022-08-23T08:56:39.286Z,99.90
2022-08-23T09:00:43.040Z,99.90
2022-08-23T09:04:48.287Z,99.90
2022-08-23T09:09:05.394Z,99.90
2022-08-23T09:13:27.455Z,99.90
2022-08-23T09:17:39.675Z,99.90
2022-08-23T09:21:48.109Z,99.90
2022-08-23T09:25:56.369Z,99.90
2022-08-23T09:30:03.675Z,99.90
2022-08-23T09:34:07.539Z,99.90
2022-08-23T09:38:21.479Z,99.90
2022-08-23T09:42:30.937Z,99.90
2022-08-23T09:46:42.137Z,99.90
2022-08-23T09:50:50.555Z,97.20
2022-08-23T09:55:02.877Z,98.10
2022-08-23T09:59:26.535Z,99.90
2022-08-23T10:03:31.292Z,98.90
2022-08-23T10:07:42.349Z,96.30
2022-08-23T10:11:47.591Z,94.70
2022-08-23T10:16:00.641Z,94.60
2022-08-23T10:20:18.236Z,96.50
2022-08-23T10:24:31.341Z,96.80
2022-08-23T10:29:04.923Z,95.20
2022-08-23T10:33:16.940Z,96.20
2022-08-23T10:37:44.098Z,96.90
2022-08-23T10:41:57.839Z,99.70
2022-08-23T10:46:04.714Z,99.90
2022-08-23T10:50:10.041Z,99.90
2022-08-23T10:54:24.166Z,99.90
2022-08-23T10:58:37.084Z,99.90
2022-08-23T11:02:50.780Z,99.90
2022-08-23T11:06:56.889Z,99.90
2022-08-23T11:11:00.258Z,99.90
2022-08-23T11:15:26.349Z,99.90
2022-08-23T11:19:52.731Z,99.90
2022-08-23T11:24:18.476Z,99.90
2022-08-23T11:28:48.548Z,99.90
2022-08-23T11:32:52.105Z,99.90
2022-08-23T11:37:28.548Z,99.90
2022-08-23T11:41:34.444Z,99.90
2022-08-23T11:45:46.475Z,99.90
2022-08-23T11:50:14.702Z,99.90
2022-08-23T11:54:33.893Z,99.90
2022-08-23T11:59:08.817Z,99.90
2022-08-23T12:03:27.109Z,99.50
2022-08-23T12:07:48.608Z,98.20
2022-08-23T12:12:25.360Z,96.20
2022-08-23T12:16:36.376Z,96.00
2022-08-23T12:20:41.905Z,98.10
2022-08-23T12:24:53.525Z,95.90
2022-08-23T12:29:05.843Z,95.90
2022-08-23T12:33:19.948Z,95.40
2022-08-23T12:37:34.660Z,95.10
2022-08-23T12:41:55.803Z,94.00
2022-08-23T12:46:03.802Z,96.40
2022-08-23T12:50:10.760Z,95.00
2022-08-23T12:54:17.033Z,94.00
2022-08-23T12:58:33.637Z,93.30
2022-08-23T13:02:39.865Z,94.60
2022-08-23T13:06:46.177Z,93.30
2022-08-23T13:10:49.990Z,95.30
2022-08-23T13:14:55.465Z,95.00
2022-08-23T13:19:17.852Z,93.70
2022-08-23T13:23:30.153Z,94.50
2022-08-23T13:27:38.562Z,94.10
2022-08-23T13:32:03.268Z,95.90
2022-08-23T13:36:14.329Z,95.40
2022-08-23T13:40:22.805Z,92.60
2022-08-23T13:44:28.153Z,91.80
2022-08-23T13:48:34.914Z,92.90
2022-08-23T13:53:03.157Z,91.90
2022-08-23T13:57:07.599Z,93.50
2022-08-23T14:01:19.373Z,91.70
2022-08-23T14:05:25.343Z,92.10
2022-08-23T14:09:30.703Z,92.40
2022-08-23T14:13:37.068Z,92.40
2022-08-23T14:17:43.917Z,92.90
2022-08-23T14:21:47.965Z,93.00
2022-08-23T14:25:56.847Z,94.30
2022-08-23T14:30:00.261Z,95.90
2022-08-23T14:34:04.446Z,96.50
2022-08-23T14:38:10.307Z,97.60
2022-08-23T14:42:18.180Z,95.80
2022-08-23T14:46:25.588Z,99.80
2022-08-23T14:50:29.307Z,99.90
2022-08-23T14:54:34.617Z,99.90
2022-08-23T14:58:43.853Z,99.90
2022-08-23T15:02:50.207Z,99.90
2022-08-23T15:07:17.310Z,99.90
2022-08-23T15:15:49.928Z,99.90
2022-08-23T15:19:54.968Z,99.90
2022-08-23T15:23:59.085Z,99.90
2022-08-23T15:28:07.569Z,99.90
2022-08-23T15:32:15.462Z,99.90
2022-08-23T15:36:26.327Z,99.90
2022-08-23T15:40:29.820Z,99.90
2022-08-23T15:44:33.229Z,99.90
2022-08-23T15:49:04.641Z,99.90
2022-08-23T15:53:07.902Z,99.90
2022-08-23T15:57:16.700Z,99.90
2022-08-23T16:01:24.650Z,99.90
2022-08-23T16:05:29.669Z,99.90
2022-08-23T16:09:34.955Z,99.90
2022-08-23T16:13:40.836Z,99.90
2022-08-23T16:17:44.092Z,99.90
2022-08-23T16:21:48.730Z,99.90
2022-08-23T16:25:55.931Z,99.90
2022-08-23T16:30:02.663Z,99.90
2022-08-23T16:34:08.103Z,99.90
2022-08-23T16:38:12.744Z,99.90
2022-08-23T16:42:15.988Z,99.90
2022-08-23T16:46:21.114Z,99.90
2022-08-23T16:50:24.632Z,99.90
2022-08-23T16:54:29.726Z,99.90
2022-08-23T16:58:33.106Z,99.90
2022-08-23T17:02:39.421Z,99.90
2022-08-23T17:06:43.052Z,99.90
2022-08-23T17:10:49.939Z,99.90
2022-08-23T17:14:55.413Z,99.90
2022-08-23T17:19:32.711Z,99.90
2022-08-23T17:23:45.193Z,99.90
2022-08-23T17:27:58.637Z,99.90
2022-08-23T17:32:21.124Z,99.90
2022-08-23T17:36:33.881Z,99.90
2022-08-23T17:40:40.691Z,99.90
2022-08-23T17:44:45.874Z,98.40
2022-08-23T17:48:49.667Z,97.60
2022-08-23T17:52:53.437Z,99.60
2022-08-23T17:57:07.112Z,98.10
2022-08-23T18:01:32.798Z,99.40
2022-08-23T18:06:16.886Z,99.90
2022-08-23T18:10:50.809Z,99.90
2022-08-23T18:15:15.391Z,99.90
2022-08-23T18:19:50.141Z,99.90
2022-08-23T18:24:00.752Z,99.90
2022-08-23T18:28:12.645Z,99.90
2022-08-23T18:32:17.971Z,99.90
2022-08-23T18:36:25.017Z,99.90
2022-08-23T18:40:32.922Z,99.90
2022-08-23T18:44:38.699Z,99.90
2022-08-23T18:48:53.261Z,99.90
2022-08-23T18:53:02.206Z,99.90
2022-08-23T18:57:08.193Z,99.90
2022-08-23T19:01:56.059Z,99.90
2022-08-23T19:06:40.678Z,99.90
2022-08-23T19:10:48.235Z,99.90
2022-08-23T19:14:55.964Z,99.90
2022-08-23T19:19:01.423Z,99.90
2022-08-23T19:23:06.194Z,99.90
2022-08-23T19:27:12.732Z,99.90
2022-08-23T19:31:17.785Z,99.90
2022-08-23T19:35:22.443Z,99.90
2022-08-23T19:39:27.599Z,99.90
2022-08-23T19:43:33.380Z,99.90
2022-08-23T19:47:37.955Z,99.90
2022-08-23T19:51:44.957Z,99.90
2022-08-23T19:55:49.445Z,99.90
2022-08-23T20:00:01.910Z,99.90
2022-08-23T20:04:07.145Z,99.90
2022-08-23T20:08:11.495Z,99.90
2022-08-23T20:12:16.113Z,99.90
2022-08-23T20:16:43.069Z,99.90
2022-08-23T20:20:53.890Z,99.90
2022-08-23T20:24:58.718Z,99.90
2022-08-23T20:29:06.691Z,99.90
2022-08-23T20:33:11.794Z,99.90
2022-08-23T20:37:15.096Z,99.90
2022-08-23T20:41:18.390Z,99.90
2022-08-23T20:45:21.608Z,99.90
2022-08-23T20:49:27.602Z,99.90
2022-08-23T20:53:31.054Z,99.90
2022-08-23T20:57:37.945Z,99.90
2022-08-23T21:01:42.369Z,99.90
2022-08-23T21:05:47.449Z,99.90
2022-08-23T21:09:51.793Z,99.90
2022-08-23T21:13:55.492Z,99.90
2022-08-23T21:17:58.767Z,99.90
2022-08-23T21:22:03.362Z,99.90
2022-08-23T21:26:07.821Z,99.90
2022-08-23T21:30:12.578Z,99.90
2022-08-23T21:34:15.795Z,99.90
2022-08-23T21:38:20.596Z,99.90
2022-08-23T21:42:26.131Z,99.90
2022-08-23T21:46:29.478Z,99.90
2022-08-23T21:50:33.334Z,99.90
2022-08-23T21:54:42.854Z,99.90
2022-08-23T21:58:46.947Z,99.90
2022-08-23T22:02:55.588Z,99.90
2022-08-23T22:07:00.088Z,99.90
2022-08-23T22:11:08.418Z,99.90
2022-08-23T22:15:13.105Z,99.90
2022-08-23T22:19:17.010Z,99.90
2022-08-23T22:23:20.320Z,99.90
2022-08-23T22:27:24.956Z,99.90
2022-08-23T22:31:28.749Z,99.90
2022-08-23T22:35:35.201Z,99.90
2022-08-23T22:39:39.835Z,99.90
2022-08-23T22:43:44.396Z,99.90
2022-08-23T22:47:47.645Z,99.90
2022-08-23T22:51:55.035Z,99.90
2022-08-23T22:55:58.623Z,99.90
2022-08-23T23:00:03.345Z,99.90
2022-08-23T23:04:09.319Z,99.90
2022-08-23T23:08:30.909Z,99.90
2022-08-23T23:12:34.210Z,99.90
2022-08-23T23:16:39.510Z,99.90
2022-08-23T23:20:42.868Z,99.90
2022-08-23T23:24:46.175Z,99.90
2022-08-23T23:28:49.357Z,99.90
2022-08-23T23:32:54.021Z,99.90
2022-08-23T23:36:57.605Z,99.90
2022-08-23T23:41:00.782Z,99.90
2022-08-23T23:45:04.579Z,99.90
2022-08-23T23:49:09.229Z,99.90
2022-08-23T23:53:12.450Z,99.90
2022-08-23T23:57:15.770Z,99.90
